Greenwich, KS (67055)

12:22 PM CST on February 13, 2016 (GMT -0600)
Teal Cove | | Change Station
CLOSE
Current Station
Personal Weather Station
Location: Wichita, KS
Elevation: 1378 ft
Nearby Weather Stations

Elev 1378 ft 37.76 °N, 97.26 °W | Updated 4 minutes ago

Clear
Clear
33.4 °F
Feels Like 33 °F
N
3.0
Wind Variable Wind from ESE
Gusts 10.0 mph

Today
High -- | Low -- °F
--% Chance of Precip.
Yesterday
High -- | Low -- °F
Precip. -- in
Pressure 30.45 in
Visibility 10.0 miles
Clouds Clear
Windchill 33 °F
Dew Point 4 °F
Humidity 29%
Rainfall 0.00 in
Snow Depth Not available.
7:21 AM 6:05 PM
Waxing Crescent, 33% visible
METAR KAAO 131754Z AUTO 14012KT 10SM CLR 01/M17 A3040 RMK AO2 SLP310 T00061167 10011 21067 58020
Pressure 30.45 in
Visibility 10.0 miles
Clouds Clear
Windchill 33 °F
Dew Point 4 °F
Humidity 29%
Rainfall 0.00 in
Snow Depth Not available.
7:21 AM 6:05 PM
Waxing Crescent, 33% visible
METAR KAAO 131754Z AUTO 14012KT 10SM CLR 01/M17 A3040 RMK AO2 SLP310 T00061167 10011 21067 58020

10-Day Weather Forecast

Almanac

Astronomy

Feb. 13, 2016 Rise Set
Actual Time
Civil Twilight
Nautical Twilight
Astronomical Twilight
Moon
Length of Visible Light
Length of Day
Tomorrow will be .
, % of the Moon is Illuminated

Today's Extremes

State Highs State Lows

Community

WunderPhotos

Upload Photos

1,892,632 photos uploaded!

WunderBlog® & News

Nearby

Air Quality

  Air Quality AQ Index Pollutant
Not available.

Snow Depth

Station Depth Elevation

Earthquake Activity

City Distance Mag. Time & Date
Minimum magnitude displayed is 2.5.

Coastal Water Temperatures

Place Temperature

Stations

Nearby Weather Stations

Station Location Temp. Windchill Dew Point Humidity Wind Precip. Elev Updated Type
                   

Watches & Warnings

There are currently no watches in effect.